Terminal Aerodrome Forecast
Issued by NWS

Home | Current Version | Previous Version | Text Only | Print | Product List | Glossary On
Versions: 1 2 3 4 5 6 7 8 9 10 11 12 13 14 15 16 17 18 19 20 21 22 23
521
FTUS41 KPHI 180559
TAFPNE
TAF
KPNE 180559Z 1806/1906 15005KT P6SM SCT060 BKN250
     FM180900 16006KT P6SM VCSH SCT025 OVC050
      TEMPO 1810/1813 4SM -SHRA BKN015
     FM181400 18006KT P6SM SCT015 BKN030
     FM181600 19007KT P6SM FEW030 BKN080
     FM182300 20009KT 5SM -SHRA VCTS SCT025CB BKN050 PROB30
      1900/1903 2SM TSRA BKN025CB
     FM190400 21006KT P6SM SCT030 OVC080=

USA.gov is the U.S. government's official web portal to all federal, state and local government web resources and services.